Time;durP1;ratioP1;P1;durP2;ratioP2;P2;SDS_P1;SDS_P2;PMS_P1;PMS_P2;Temp;Humidity;BMP_temperature;BMP_pressure;BME280_temperature;BME280_humidity;BME280_pressure;Samples;Min_cycle;Max_cycle;Signal;HPM_P1;HPM_P2
2021/08/12 00:00:07;;;;;;;6.33;5.73;;;15.20;99.90;;;;;;5103803;28;20205;-70
2021/08/12 00:02:35;;;;;;;6.37;5.77;;;15.20;99.90;;;;;;5103882;28;20188;-70
2021/08/12 00:05:05;;;;;;;8.57;5.97;;;15.30;99.90;;;;;;5102448;28;20297;-70
2021/08/12 00:07:34;;;;;;;7.40;5.43;;;15.30;99.90;;;;;;5103866;28;20179;-70
2021/08/12 00:10:03;;;;;;;6.93;5.37;;;15.30;99.90;;;;;;5104780;27;20176;-70
2021/08/12 00:12:33;;;;;;;7.47;5.60;;;15.20;99.90;;;;;;5104301;28;20225;-70
2021/08/12 00:15:01;;;;;;;5.83;5.33;;;15.20;99.90;;;;;;5103253;28;20204;-69
2021/08/12 00:17:29;;;;;;;5.73;5.23;;;15.20;99.90;;;;;;5103288;28;20183;-70
2021/08/12 00:19:58;;;;;;;5.67;5.10;;;15.30;99.90;;;;;;5109831;28;20183;-70
2021/08/12 00:22:26;;;;;;;8.57;5.30;;;15.30;99.90;;;;;;5104696;28;20237;-70
2021/08/12 00:24:54;;;;;;;5.33;4.83;;;15.20;99.90;;;;;;5113296;28;20178;-70
2021/08/12 00:27:22;;;;;;;5.23;4.83;;;15.20;99.90;;;;;;5104628;28;20183;-70
2021/08/12 00:29:52;;;;;;;5.97;5.47;;;15.20;99.90;;;;;;5103737;28;20229;-70
2021/08/12 00:32:20;;;;;;;9.00;5.93;;;15.20;99.90;;;;;;5099975;28;20186;-70
2021/08/12 00:34:48;;;;;;;5.57;5.17;;;15.20;99.90;;;;;;5104251;28;20191;-70
2021/08/12 00:37:18;;;;;;;5.50;4.70;;;15.20;99.90;;;;;;5108566;28;20398;-70
2021/08/12 00:39:46;;;;;;;9.60;5.33;;;15.20;99.90;;;;;;5104868;28;20190;-70
2021/08/12 00:42:14;;;;;;;6.13;5.57;;;15.20;99.90;;;;;;5107631;28;20188;-70
2021/08/12 00:44:42;;;;;;;7.63;5.70;;;15.10;99.90;;;;;;5102973;28;20207;-69
2021/08/12 00:47:12;;;;;;;5.93;5.43;;;15.10;99.90;;;;;;5105819;28;20175;-70
2021/08/12 00:49:41;;;;;;;6.30;5.70;;;15.10;99.90;;;;;;5103275;28;20180;-70
2021/08/12 00:52:10;;;;;;;6.93;5.57;;;15.10;99.90;;;;;;5106321;28;20172;-70
2021/08/12 00:54:39;;;;;;;6.13;5.63;;;15.00;99.90;;;;;;5106953;28;20193;-70
2021/08/12 00:57:10;;;;;;;6.40;5.80;;;15.00;99.90;;;;;;5100914;28;20194;-70
2021/08/12 00:59:39;;;;;;;6.93;5.77;;;15.00;99.90;;;;;;5102536;28;20182;-69
2021/08/12 01:02:08;;;;;;;9.30;5.50;;;14.90;99.90;;;;;;5104456;28;20235;-70
2021/08/12 01:04:39;;;;;;;6.50;5.70;;;14.90;99.90;;;;;;5108789;28;20435;-70
2021/08/12 01:07:11;;;;;;;5.13;4.70;;;14.80;99.90;;;;;;5099398;28;20187;-70
2021/08/12 01:09:46;;;;;;;5.30;4.90;;;14.70;99.90;;;;;;5111990;28;20168;-69
2021/08/12 01:12:20;;;;;;;6.00;5.50;;;14.70;99.90;;;;;;5108835;28;20194;-70
2021/08/12 01:14:58;;;;;;;7.53;5.50;;;14.60;99.90;;;;;;5106400;28;20197;-70
2021/08/12 01:17:32;;;;;;;6.10;5.53;;;14.60;99.90;;;;;;5099683;28;20358;-70
2021/08/12 01:20:35;;;;;;;6.43;5.30;;;14.50;99.90;;;;;;5101996;28;20183;-69
2021/08/12 01:23:10;;;;;;;6.13;5.53;;;14.50;99.90;;;;;;5101563;28;20175;-67
2021/08/12 01:25:42;;;;;;;6.03;5.53;;;14.50;99.90;;;;;;5106618;28;20228;-70
2021/08/12 01:28:16;;;;;;;6.40;5.43;;;14.50;99.90;;;;;;5102537;28;20176;-68
2021/08/12 01:30:54;;;;;;;6.00;5.47;;;14.40;99.90;;;;;;5103037;28;20186;-69
2021/08/12 01:33:41;;;;;;;5.63;5.13;;;14.40;99.90;;;;;;5113622;28;20178;-69
2021/08/12 01:36:14;;;;;;;6.47;5.87;;;14.40;99.90;;;;;;5108116;28;20343;-70
2021/08/12 01:38:43;;;;;;;6.50;5.90;;;14.40;99.90;;;;;;5112883;28;20439;-70
2021/08/12 01:41:12;;;;;;;5.63;5.13;;;14.30;99.90;;;;;;5114301;28;20299;-70
2021/08/12 01:43:40;;;;;;;6.43;5.80;;;14.30;99.90;;;;;;5102731;28;20430;-69
2021/08/12 01:46:12;;;;;;;7.00;5.90;;;14.20;99.90;;;;;;5103836;28;20416;-69
2021/08/12 01:48:41;;;;;;;5.50;5.10;;;14.20;99.90;;;;;;5108850;28;20306;-70
2021/08/12 01:51:13;;;;;;;6.00;5.30;;;14.20;99.90;;;;;;5111154;28;20186;-70
2021/08/12 01:53:41;;;;;;;7.83;5.70;;;14.10;99.90;;;;;;5107110;28;20415;-69
2021/08/12 01:56:10;;;;;;;7.00;6.13;;;14.10;99.90;;;;;;5104111;28;20203;-69
2021/08/12 01:58:39;;;;;;;6.47;5.97;;;14.10;99.90;;;;;;5111047;28;20182;-69
2021/08/12 02:01:07;;;;;;;6.30;5.73;;;14.10;99.90;;;;;;5112444;27;20219;-69
2021/08/12 02:03:39;;;;;;;6.87;5.97;;;14.10;99.90;;;;;;5112741;27;20198;-70
2021/08/12 02:06:08;;;;;;;6.97;5.83;;;14.10;99.90;;;;;;5102787;28;20251;-70
2021/08/12 02:08:39;;;;;;;6.97;6.27;;;14.00;99.90;;;;;;5115392;27;20198;-70
2021/08/12 02:11:07;;;;;;;7.27;6.10;;;14.00;99.90;;;;;;5107805;27;20230;-69
2021/08/12 02:13:35;;;;;;;7.23;6.27;;;14.00;99.90;;;;;;5105224;28;20232;-70
2021/08/12 02:16:08;;;;;;;9.50;6.57;;;14.00;99.90;;;;;;5108112;28;20199;-70
2021/08/12 02:18:39;;;;;;;9.07;6.40;;;14.00;99.90;;;;;;5107684;28;20186;-70
2021/08/12 02:21:12;;;;;;;8.27;6.57;;;13.90;99.90;;;;;;5105220;28;20187;-69
2021/08/12 02:23:47;;;;;;;6.53;5.70;;;13.90;99.90;;;;;;5107789;28;20358;-70
2021/08/12 02:26:20;;;;;;;7.77;5.73;;;13.90;99.90;;;;;;5103265;28;20648;-70
2021/08/12 02:28:50;;;;;;;6.57;6.00;;;13.90;99.90;;;;;;5103917;28;20197;-70
2021/08/12 02:31:20;;;;;;;6.50;5.87;;;13.90;99.90;;;;;;5111711;28;20187;-70
2021/08/12 02:33:50;;;;;;;9.10;6.63;;;13.90;99.90;;;;;;5106833;28;20330;-70
2021/08/12 02:36:19;;;;;;;6.37;5.77;;;13.90;99.90;;;;;;5107167;28;20221;-70
2021/08/12 02:38:51;;;;;;;6.77;6.10;;;13.90;99.90;;;;;;5103670;28;20175;-69
2021/08/12 02:41:21;;;;;;;7.77;6.30;;;13.90;99.90;;;;;;5105823;28;20187;-69
2021/08/12 02:43:51;;;;;;;6.67;6.07;;;13.90;99.90;;;;;;5101031;28;20175;-70
2021/08/12 02:46:23;;;;;;;8.77;5.90;;;13.80;99.90;;;;;;5104071;28;20242;-70
2021/08/12 02:48:52;;;;;;;5.83;5.33;;;13.90;99.90;;;;;;5106476;28;21465;-69
2021/08/12 02:51:23;;;;;;;9.13;5.77;;;13.90;99.90;;;;;;5103976;28;20175;-69
2021/08/12 02:53:53;;;;;;;6.40;5.80;;;13.90;99.90;;;;;;5112156;28;20178;-69
2021/08/12 02:56:23;;;;;;;8.20;5.80;;;13.90;99.90;;;;;;5106443;28;20180;-70
2021/08/12 02:58:52;;;;;;;7.20;6.30;;;13.90;99.90;;;;;;5112120;28;20182;-69
2021/08/12 03:01:22;;;;;;;6.80;6.13;;;13.90;99.90;;;;;;5111602;28;20416;-70
2021/08/12 03:03:52;;;;;;;6.70;6.10;;;13.90;99.90;;;;;;5103850;28;20338;-69
2021/08/12 03:06:22;;;;;;;8.10;6.40;;;13.90;99.90;;;;;;5103620;28;20179;-68
2021/08/12 03:08:53;;;;;;;8.93;6.57;;;13.90;99.90;;;;;;5114181;27;20178;-70
2021/08/12 03:11:22;;;;;;;8.97;6.93;;;13.80;99.90;;;;;;5109082;28;20182;-70
2021/08/12 03:13:52;;;;;;;10.37;6.60;;;13.90;99.90;;;;;;5110495;28;20426;-70
2021/08/12 03:16:21;;;;;;;7.50;6.83;;;13.90;99.90;;;;;;5106944;28;20179;-70
2021/08/12 03:18:49;;;;;;;7.77;6.97;;;13.90;99.90;;;;;;5103642;28;20190;-70
2021/08/12 03:21:18;;;;;;;7.10;6.40;;;13.90;99.90;;;;;;5101113;28;20873;-70
2021/08/12 03:23:46;;;;;;;6.57;5.93;;;13.90;99.90;;;;;;5102580;28;20172;-70
2021/08/12 03:26:17;;;;;;;8.87;7.13;;;13.80;99.90;;;;;;5103551;28;20218;-69
2021/08/12 03:28:46;;;;;;;11.70;7.20;;;13.80;99.90;;;;;;5114102;28;20198;-69
2021/08/12 03:31:14;;;;;;;12.97;7.80;;;13.90;99.90;;;;;;5104696;28;20195;-69
2021/08/12 03:33:43;;;;;;;8.90;6.83;;;13.90;99.90;;;;;;5106453;28;20176;-70
2021/08/12 03:36:11;;;;;;;9.47;6.73;;;13.90;99.90;;;;;;5107438;28;20206;-69
2021/08/12 03:38:39;;;;;;;12.10;6.67;;;13.90;99.90;;;;;;5114787;27;20313;-69
2021/08/12 03:41:07;;;;;;;7.93;6.70;;;13.90;99.90;;;;;;5106144;28;20178;-70
2021/08/12 03:43:38;;;;;;;9.33;7.20;;;13.90;99.90;;;;;;5119698;27;20172;-69
2021/08/12 03:46:06;;;;;;;8.07;7.27;;;13.90;99.90;;;;;;5107921;28;20183;-69
2021/08/12 03:48:34;;;;;;;9.47;7.40;;;13.90;99.90;;;;;;5105904;28;20194;-70
2021/08/12 03:51:03;;;;;;;9.60;6.73;;;13.80;99.90;;;;;;5104647;28;20251;-69
2021/08/12 03:53:31;;;;;;;11.53;7.27;;;13.80;99.90;;;;;;5105954;28;20183;-69
2021/08/12 03:56:00;;;;;;;7.73;6.93;;;13.70;99.90;;;;;;5103620;28;20179;-70
2021/08/12 03:58:28;;;;;;;10.77;6.80;;;13.70;99.90;;;;;;5102460;28;20233;-70
2021/08/12 04:00:58;;;;;;;8.57;6.30;;;13.70;99.90;;;;;;5107216;28;20257;-70
2021/08/12 04:03:27;;;;;;;9.63;7.73;;;13.70;99.90;;;;;;5106509;28;20199;-70
2021/08/12 04:05:55;;;;;;;10.10;7.07;;;13.70;99.90;;;;;;5111293;28;20184;-69
2021/08/12 04:08:23;;;;;;;8.13;6.77;;;13.70;99.90;;;;;;5099318;28;20202;-69
2021/08/12 04:10:51;;;;;;;12.73;7.70;;;13.90;99.90;;;;;;5105070;28;20176;-69
2021/08/12 04:13:46;;;;;;;10.43;7.60;;;13.90;99.90;;;;;;5106943;28;20431;-69
2021/08/12 04:16:43;;;;;;;9.27;7.70;;;13.90;99.90;;;;;;5109083;28;20271;-69
2021/08/12 04:19:12;;;;;;;9.03;7.97;;;14.00;99.90;;;;;;5109979;28;20191;-69
2021/08/12 04:21:40;;;;;;;10.63;8.23;;;14.00;99.90;;;;;;5104782;28;20437;-70
2021/08/12 04:24:09;;;;;;;14.07;8.30;;;14.00;99.90;;;;;;5104829;28;20195;-68
2021/08/12 04:26:37;;;;;;;10.80;8.03;;;14.00;99.90;;;;;;5114469;28;20192;-69
2021/08/12 04:29:05;;;;;;;8.73;7.53;;;14.10;99.90;;;;;;5110544;28;20186;-69
2021/08/12 04:31:36;;;;;;;9.50;7.83;;;14.00;99.90;;;;;;5105415;28;20327;-70
2021/08/12 04:34:06;;;;;;;10.50;8.17;;;14.00;99.90;;;;;;5113830;28;20411;-69
2021/08/12 04:36:34;;;;;;;12.47;8.17;;;13.90;99.90;;;;;;5105657;28;20229;-69
2021/08/12 04:39:03;;;;;;;8.53;7.70;;;13.90;99.90;;;;;;5106718;28;20394;-68
2021/08/12 04:41:31;;;;;;;8.60;7.37;;;13.90;99.90;;;;;;5101884;28;20183;-68
2021/08/12 04:43:59;;;;;;;9.50;7.63;;;13.90;99.90;;;;;;5099587;28;20191;-69
2021/08/12 04:46:28;;;;;;;9.40;7.60;;;13.90;99.90;;;;;;5103559;28;20311;-69
2021/08/12 04:48:56;;;;;;;8.73;7.83;;;13.90;99.90;;;;;;5102562;28;20171;-70
2021/08/12 04:51:26;;;;;;;9.70;7.70;;;13.90;99.90;;;;;;5102361;28;20326;-70
2021/08/12 04:53:54;;;;;;;9.47;7.90;;;13.80;99.90;;;;;;5104712;28;20207;-69
2021/08/12 04:56:22;;;;;;;8.07;7.03;;;13.90;99.90;;;;;;5105971;28;20220;-69
2021/08/12 04:58:54;;;;;;;9.20;7.33;;;14.00;99.90;;;;;;5101543;28;20253;-69
2021/08/12 05:01:23;;;;;;;10.33;7.60;;;14.00;99.90;;;;;;5102311;28;20439;-69
2021/08/12 05:03:51;;;;;;;7.30;6.60;;;14.10;99.90;;;;;;5108860;28;20389;-69
2021/08/12 05:06:19;;;;;;;7.67;6.73;;;14.10;99.90;;;;;;5106126;28;20184;-69
2021/08/12 05:08:49;;;;;;;6.63;6.03;;;14.10;99.90;;;;;;5113795;27;20171;-70
2021/08/12 05:11:17;;;;;;;7.20;6.53;;;14.20;99.90;;;;;;5108803;28;20314;-69
2021/08/12 05:13:47;;;;;;;7.73;6.60;;;14.20;99.90;;;;;;5104678;28;20183;-69
2021/08/12 05:16:15;;;;;;;7.63;6.50;;;14.20;99.90;;;;;;5110956;28;20184;-69
2021/08/12 05:18:43;;;;;;;7.57;6.80;;;14.20;99.90;;;;;;5115550;28;20199;-69
2021/08/12 05:21:11;;;;;;;10.27;6.77;;;14.20;99.90;;;;;;5108550;27;20175;-69
2021/08/12 05:23:42;;;;;;;8.53;7.00;;;14.20;99.90;;;;;;5111837;28;20197;-69
2021/08/12 05:26:11;;;;;;;9.37;7.17;;;14.30;99.90;;;;;;5107018;28;20194;-70
2021/08/12 05:28:39;;;;;;;8.90;6.57;;;14.30;99.90;;;;;;5103857;28;20438;-69
2021/08/12 05:31:08;;;;;;;7.80;6.47;;;14.30;99.90;;;;;;5105906;27;20217;-70
2021/08/12 05:33:36;;;;;;;8.33;6.60;;;14.30;99.90;;;;;;5104843;28;20503;-70
2021/08/12 05:36:05;;;;;;;8.40;6.30;;;14.30;99.90;;;;;;5110842;28;20334;-69
2021/08/12 05:38:34;;;;;;;7.03;6.23;;;14.40;99.90;;;;;;5104558;28;20196;-69
2021/08/12 05:41:02;;;;;;;9.80;6.67;;;14.40;99.90;;;;;;5104938;28;20255;-69
2021/08/12 05:43:32;;;;;;;7.73;6.70;;;14.50;99.90;;;;;;5104412;28;20217;-70
2021/08/12 05:46:00;;;;;;;7.50;6.60;;;14.60;99.90;;;;;;5108890;28;20191;-69
2021/08/12 05:48:28;;;;;;;8.20;7.33;;;14.70;99.90;;;;;;5110397;28;20197;-69
2021/08/12 05:50:57;;;;;;;11.27;7.10;;;14.80;99.90;;;;;;5108826;28;20370;-70
2021/08/12 05:53:26;;;;;;;8.70;6.80;;;14.90;99.90;;;;;;5105742;28;20194;-69
2021/08/12 05:55:54;;;;;;;10.23;6.97;;;15.10;99.90;;;;;;5108896;28;20186;-69
2021/08/12 05:58:23;;;;;;;9.60;7.63;;;15.20;99.90;;;;;;5105074;28;20350;-71
2021/08/12 06:00:53;;;;;;;8.70;7.47;;;15.40;99.90;;;;;;5106477;28;20494;-69
2021/08/12 06:03:22;;;;;;;9.83;7.47;;;15.70;99.90;;;;;;5107982;27;20172;-68
2021/08/12 06:05:56;;;;;;;8.80;7.20;;;15.90;99.90;;;;;;5105850;28;20389;-70
2021/08/12 06:08:25;;;;;;;11.57;7.00;;;16.20;99.90;;;;;;5109582;27;20167;-70
2021/08/12 06:10:53;;;;;;;10.40;7.50;;;16.40;99.90;;;;;;5107253;27;20173;-69
2021/08/12 06:13:22;;;;;;;8.00;7.27;;;16.60;99.90;;;;;;5111121;28;20183;-69
2021/08/12 06:15:50;;;;;;;8.17;6.67;;;16.50;99.90;;;;;;5107910;28;20236;-69
2021/08/12 06:18:22;;;;;;;11.43;8.43;;;16.50;99.90;;;;;;5107481;28;20206;-67
2021/08/12 06:20:50;;;;;;;11.33;8.17;;;16.50;99.90;;;;;;5103383;28;20199;-70
2021/08/12 06:23:18;;;;;;;9.57;7.83;;;16.50;99.90;;;;;;5108334;28;20458;-70
2021/08/12 06:25:46;;;;;;;13.10;9.27;;;16.60;99.90;;;;;;5108754;28;20199;-70
2021/08/12 06:28:15;;;;;;;10.00;8.67;;;16.80;99.90;;;;;;5104863;28;20220;-69
2021/08/12 06:30:43;;;;;;;12.07;8.73;;;16.90;99.90;;;;;;5108342;28;20184;-69
2021/08/12 06:33:11;;;;;;;16.73;10.50;;;17.00;99.90;;;;;;5106097;28;20183;-70
2021/08/12 06:35:41;;;;;;;16.80;11.20;;;17.00;99.90;;;;;;5105270;28;20525;-70
2021/08/12 06:38:09;;;;;;;18.83;13.40;;;17.10;99.90;;;;;;5084590;28;20188;-69
2021/08/12 06:40:38;;;;;;;17.80;12.30;;;17.20;99.90;;;;;;5103947;28;20518;-69
2021/08/12 06:43:06;;;;;;;20.97;14.83;;;17.40;99.90;;;;;;5109078;28;20326;-70
2021/08/12 06:45:35;;;;;;;21.73;14.17;;;17.40;99.90;;;;;;5104107;27;20551;-70
2021/08/12 06:48:05;;;;;;;20.57;12.97;;;17.50;99.90;;;;;;5106628;27;20656;-69
2021/08/12 06:50:33;;;;;;;20.20;14.37;;;17.60;99.90;;;;;;5102346;28;20179;-69
2021/08/12 06:53:05;;;;;;;24.80;16.13;;;17.70;99.90;;;;;;5103234;28;20197;-69
2021/08/12 06:55:34;;;;;;;25.60;17.47;;;17.70;99.90;;;;;;5103047;27;20187;-70
2021/08/12 06:58:03;;;;;;;27.07;16.40;;;17.60;99.90;;;;;;5105978;27;20190;-69
2021/08/12 07:00:31;;;;;;;25.30;15.27;;;17.60;99.90;;;;;;5103326;27;20227;-69
2021/08/12 07:03:00;;;;;;;25.17;16.03;;;17.60;99.90;;;;;;5104983;28;20359;-70
2021/08/12 07:05:28;;;;;;;23.47;16.03;;;17.70;99.90;;;;;;5118333;27;20179;-69
2021/08/12 07:07:56;;;;;;;23.83;15.47;;;17.80;99.90;;;;;;5100857;28;20182;-69
2021/08/12 07:10:26;;;;;;;22.33;15.33;;;17.90;99.90;;;;;;5122286;27;20206;-70
2021/08/12 07:12:54;;;;;;;27.27;15.43;;;18.00;99.90;;;;;;5103928;28;21309;-70
2021/08/12 07:15:23;;;;;;;25.40;17.07;;;18.10;99.90;;;;;;5102890;28;20329;-70
2021/08/12 07:17:52;;;;;;;23.23;15.50;;;18.20;99.90;;;;;;5097146;28;20195;-70
2021/08/12 07:20:21;;;;;;;23.13;16.37;;;18.30;99.90;;;;;;5102878;28;20297;-70
2021/08/12 07:22:49;;;;;;;26.23;16.70;;;18.60;99.90;;;;;;5102109;28;20186;-70
2021/08/12 07:25:18;;;;;;;27.10;17.43;;;18.70;99.90;;;;;;5108894;27;20186;-70
2021/08/12 07:27:49;;;;;;;24.10;17.53;;;18.90;99.90;;;;;;5105287;28;20225;-70
2021/08/12 07:30:19;;;;;;;23.77;16.70;;;19.10;99.90;;;;;;5102075;28;20194;-70
2021/08/12 07:32:47;;;;;;;26.97;18.23;;;19.20;99.90;;;;;;5106575;28;20438;-69
2021/08/12 07:35:18;;;;;;;27.70;17.87;;;19.30;99.90;;;;;;5103696;27;20182;-70
2021/08/12 07:37:46;;;;;;;26.53;17.47;;;19.30;99.90;;;;;;5102033;28;20183;-70
2021/08/12 07:40:15;;;;;;;23.50;17.13;;;19.50;99.90;;;;;;5101910;28;20203;-70
2021/08/12 07:42:43;;;;;;;23.77;16.57;;;19.80;99.90;;;;;;5117267;27;20391;-70
2021/08/12 07:45:13;;;;;;;22.57;15.57;;;19.80;99.90;;;;;;5101194;28;20187;-70
2021/08/12 07:47:42;;;;;;;21.90;14.93;;;19.80;99.90;;;;;;5101694;28;20232;-71
2021/08/12 07:50:11;;;;;;;22.07;15.63;;;19.80;99.90;;;;;;5101760;28;20183;-71
2021/08/12 07:52:41;;;;;;;22.30;16.23;;;19.90;99.90;;;;;;5104693;27;20182;-70
2021/08/12 07:55:10;;;;;;;21.87;15.73;;;20.30;99.90;;;;;;5104349;27;20430;-70
2021/08/12 07:57:39;;;;;;;22.47;16.80;;;20.30;99.90;;;;;;5103924;28;20202;-70
2021/08/12 08:00:08;;;;;;;20.97;15.67;;;20.60;99.90;;;;;;5110719;28;20191;-71
2021/08/12 08:02:45;;;;;;;25.03;16.53;;;21.10;99.90;;;;;;5107647;28;20190;-70
2021/08/12 08:05:15;;;;;;;21.37;14.57;;;21.70;99.90;;;;;;5104471;28;20231;-70
2021/08/12 08:07:44;;;;;;;19.90;15.47;;;22.00;99.90;;;;;;5105008;28;20540;-70
2021/08/12 08:10:13;;;;;;;20.43;13.80;;;21.90;99.90;;;;;;5103162;28;20335;-71
2021/08/12 08:12:42;;;;;;;18.87;13.03;;;21.80;99.90;;;;;;5102357;28;20212;-70
2021/08/12 08:15:12;;;;;;;20.30;13.20;;;21.90;99.90;;;;;;5099917;28;20237;-70
2021/08/12 08:18:01;;;;;;;16.33;12.13;;;22.30;99.90;;;;;;5100234;28;20181;-71
2021/08/12 08:20:30;;;;;;;20.60;13.43;;;22.60;99.90;;;;;;5103369;28;20212;-71
2021/08/12 08:23:03;;;;;;;18.23;12.10;;;22.90;99.90;;;;;;5105275;28;20325;-71
2021/08/12 08:25:32;;;;;;;12.03;10.37;;;23.60;99.90;;;;;;5111811;28;20177;-71
2021/08/12 08:28:01;;;;;;;14.20;11.07;;;23.40;99.90;;;;;;5106374;28;20318;-71
2021/08/12 08:30:31;;;;;;;14.70;12.73;;;23.50;99.90;;;;;;5109113;28;20177;-71
2021/08/12 08:33:01;;;;;;;18.87;11.90;;;23.50;99.90;;;;;;5102398;28;20214;-70
2021/08/12 08:35:30;;;;;;;14.47;12.17;;;23.40;99.90;;;;;;5100485;28;20212;-71
2021/08/12 08:38:00;;;;;;;17.03;12.17;;;23.70;99.90;;;;;;5103999;28;20182;-71
2021/08/12 08:40:28;;;;;;;16.93;10.97;;;23.70;99.90;;;;;;5108271;28;20269;-71
2021/08/12 08:42:57;;;;;;;13.53;10.17;;;24.00;99.90;;;;;;5104190;28;20205;-70
2021/08/12 08:45:27;;;;;;;13.53;10.47;;;24.30;99.90;;;;;;5107968;27;20187;-71
2021/08/12 08:47:57;;;;;;;11.37;9.17;;;24.50;99.90;;;;;;5111419;28;20212;-71
2021/08/12 08:50:31;;;;;;;11.97;8.87;;;24.50;99.90;;;;;;5112567;28;20418;-70
2021/08/12 08:53:00;;;;;;;12.30;8.47;;;24.50;99.90;;;;;;5106711;28;20353;-70
2021/08/12 08:55:29;;;;;;;9.77;8.10;;;24.40;99.90;;;;;;5107971;28;20182;-70
2021/08/12 08:57:59;;;;;;;11.07;8.23;;;24.70;99.90;;;;;;5105841;28;20179;-70
2021/08/12 09:00:28;;;;;;;10.60;8.27;;;24.70;99.90;;;;;;5105385;27;20219;-70
2021/08/12 09:02:57;;;;;;;11.80;8.53;;;24.50;99.90;;;;;;5104207;28;20268;-70
2021/08/12 09:05:27;;;;;;;11.80;7.97;;;23.60;99.90;;;;;;5106939;28;20187;-70
2021/08/12 09:07:55;;;;;;;8.80;7.90;;;23.30;99.90;;;;;;5109545;28;20193;-70
2021/08/12 09:10:24;;;;;;;9.00;8.10;;;23.20;99.90;;;;;;5110143;27;20190;-71
2021/08/12 09:12:52;;;;;;;10.47;8.63;;;22.90;99.90;;;;;;5108627;28;20407;-70
2021/08/12 09:15:21;;;;;;;8.43;7.53;;;22.70;99.90;;;;;;5108205;28;20179;-70
2021/08/12 09:17:51;;;;;;;9.60;7.87;;;22.60;99.90;;;;;;5112127;28;20192;-69
2021/08/12 09:20:21;;;;;;;11.03;8.37;;;22.50;99.90;;;;;;5107811;27;20328;-70
2021/08/12 09:22:56;;;;;;;12.97;8.53;;;22.60;99.90;;;;;;5104375;28;20204;-70
2021/08/12 09:25:37;;;;;;;10.77;8.33;;;22.60;99.90;;;;;;5109815;28;20194;-70
2021/08/12 09:28:17;;;;;;;19.40;8.80;;;22.90;99.90;;;;;;5107218;28;20194;-70
2021/08/12 09:30:46;;;;;;;11.13;8.07;;;23.10;99.90;;;;;;5114322;28;20182;-71
2021/08/12 09:33:16;;;;;;;11.83;7.97;;;23.50;99.90;;;;;;5119259;28;20193;-71
2021/08/12 09:35:45;;;;;;;13.63;8.47;;;24.10;99.90;;;;;;5108351;27;20225;-71
2021/08/12 09:38:16;;;;;;;8.13;7.27;;;25.00;99.90;;;;;;5116767;28;20179;-71
2021/08/12 09:40:52;;;;;;;11.77;7.23;;;25.10;99.90;;;;;;5114791;28;20192;-71
2021/08/12 09:43:21;;;;;;;9.67;7.30;;;25.80;99.90;;;;;;5106314;28;20183;-71
2021/08/12 09:45:49;;;;;;;10.50;7.60;;;25.90;99.90;;;;;;5107788;28;20180;-70
2021/08/12 09:48:19;;;;;;;4.80;4.40;;;25.80;99.90;;;;;;5112420;27;20178;-70
2021/08/12 09:51:00;;;;;;;6.28;5.70;;;26.00;99.90;;;;;;5109846;28;20182;-70
2021/08/12 09:53:30;;;;;;;7.90;5.10;;;26.50;99.90;;;;;;5107065;28;20182;-70
2021/08/12 09:56:07;;;;;;;5.40;4.90;;;25.90;99.90;;;;;;5107531;28;20183;-68
2021/08/12 09:58:37;;;;;;;5.03;4.57;;;25.30;99.90;;;;;;5103821;28;20203;-70
2021/08/12 10:01:19;;;;;;;4.40;4.10;;;24.90;99.90;;;;;;5105109;28;20247;-70
2021/08/12 10:03:49;;;;;;;5.27;4.77;;;24.70;99.90;;;;;;5100884;27;20187;-69
2021/08/12 10:06:21;;;;;;;7.17;4.50;;;24.50;99.90;;;;;;5105062;28;20455;-69
2021/08/12 10:08:51;;;;;;;5.80;4.07;;;24.30;99.90;;;;;;5109337;27;20376;-70
2021/08/12 10:11:23;;;;;;;7.43;4.00;;;24.60;99.90;;;;;;5119537;28;20175;-70
2021/08/12 10:13:53;;;;;;;5.03;3.80;;;25.10;99.90;;;;;;5106070;28;20190;-70
2021/08/12 10:16:22;;;;;;;3.80;3.40;;;24.80;99.90;;;;;;5105989;28;20187;-69
2021/08/12 10:18:50;;;;;;;4.23;3.93;;;24.90;99.90;;;;;;5106459;28;20180;-70
2021/08/12 10:21:20;;;;;;;5.83;3.80;;;25.40;99.90;;;;;;5106050;28;20194;-70
2021/08/12 10:23:54;;;;;;;5.13;4.33;;;25.40;99.90;;;;;;5105293;28;20328;-70
2021/08/12 10:26:26;;;;;;;4.47;4.03;;;25.60;99.90;;;;;;5106193;28;20328;-70
2021/08/12 10:28:57;;;;;;;5.23;4.10;;;25.60;99.90;;;;;;5104632;28;20720;-70
2021/08/12 10:31:29;;;;;;;3.83;3.63;;;25.50;99.90;;;;;;5104147;28;20191;-70
2021/08/12 10:34:00;;;;;;;4.57;4.13;;;25.20;99.90;;;;;;5108286;27;20791;-70
2021/08/12 10:36:28;;;;;;;5.07;4.47;;;25.10;99.90;;;;;;5107188;28;20183;-70
2021/08/12 10:38:59;;;;;;;4.70;4.30;;;25.30;99.90;;;;;;5104301;28;20183;-70
2021/08/12 10:41:28;;;;;;;4.30;4.00;;;25.10;99.90;;;;;;5108309;28;20200;-70
2021/08/12 10:44:00;;;;;;;4.67;4.27;;;25.20;99.90;;;;;;5102454;28;20182;-70
2021/08/12 10:46:36;;;;;;;7.77;4.50;;;25.30;99.90;;;;;;5104348;28;20335;-70
2021/08/12 10:49:25;;;;;;;7.27;3.77;;;25.20;99.90;;;;;;5106560;28;20223;-70
2021/08/12 10:52:04;;;;;;;5.77;4.63;;;25.10;99.90;;;;;;5106432;27;20180;-70
2021/08/12 10:54:35;;;;;;;5.20;4.20;;;25.20;99.90;;;;;;5108017;28;20171;-68
2021/08/12 10:57:20;;;;;;;6.83;4.43;;;24.90;99.90;;;;;;5103571;28;20229;-70
2021/08/12 10:59:50;;;;;;;3.90;3.53;;;24.90;99.90;;;;;;5104409;27;20187;-70
2021/08/12 11:02:46;;;;;;;4.40;4.00;;;25.00;99.90;;;;;;5108461;28;20410;-70
2021/08/12 11:05:14;;;;;;;5.80;4.30;;;24.90;99.90;;;;;;5112209;27;20175;-69
2021/08/12 11:07:53;;;;;;;5.10;4.67;;;24.70;99.90;;;;;;5112754;27;20201;-70
2021/08/12 11:10:23;;;;;;;4.70;4.30;;;24.80;99.90;;;;;;5117005;27;20254;-70
2021/08/12 11:13:10;;;;;;;4.33;4.03;;;24.70;99.90;;;;;;5109818;27;20180;-70
2021/08/12 11:15:59;;;;;;;5.07;4.50;;;24.60;99.90;;;;;;5108211;27;20393;-69
2021/08/12 11:18:44;;;;;;;4.53;4.10;;;24.70;99.90;;;;;;5106233;28;20179;-70
2021/08/12 11:21:41;;;;;;;4.70;4.40;;;25.00;99.90;;;;;;5111068;28;20198;-70
2021/08/12 11:24:10;;;;;;;5.87;4.20;;;25.10;99.90;;;;;;5108286;28;20253;-70
2021/08/12 11:27:08;;;;;;;7.00;4.20;;;25.30;99.90;;;;;;5105656;27;20195;-71
2021/08/12 11:29:38;;;;;;;3.87;3.67;;;25.80;99.90;;;;;;5113126;28;20189;-70
2021/08/12 11:32:13;;;;;;;4.53;4.10;;;26.30;99.90;;;;;;5115869;27;20249;-71
2021/08/12 11:34:55;;;;;;;4.10;3.90;;;26.30;99.90;;;;;;5114375;28;20191;-70
2021/08/12 11:37:25;;;;;;;4.28;3.80;;;26.50;99.90;;;;;;5111178;28;20329;-70
2021/08/12 11:39:56;;;;;;;5.07;4.00;;;26.70;99.90;;;;;;5110282;28;20171;-71
2021/08/12 11:42:29;;;;;;;4.03;3.63;;;26.70;99.90;;;;;;5111337;28;20430;-71
2021/08/12 11:45:00;;;;;;;4.47;4.10;;;27.00;99.90;;;;;;5110588;28;20187;-70
2021/08/12 11:47:29;;;;;;;8.23;3.95;;;27.40;99.90;;;;;;5110525;28;20190;-70
2021/08/12 11:49:59;;;;;;;5.07;3.63;;;27.50;99.90;;;;;;5109502;28;20187;-70
2021/08/12 11:52:29;;;;;;;4.15;3.80;;;27.70;99.90;;;;;;5110531;28;20168;-70
2021/08/12 11:55:02;;;;;;;4.97;3.60;;;27.80;99.90;;;;;;5109142;28;20180;-70
2021/08/12 11:57:45;;;;;;;4.38;4.00;;;28.00;99.90;;;;;;5109007;28;20447;-70
2021/08/12 12:00:15;;;;;;;6.47;3.80;;;28.00;99.90;;;;;;5105750;28;20227;-70
2021/08/12 12:02:48;;;;;;;4.28;3.88;;;28.00;99.90;;;;;;5108093;28;20197;-70
2021/08/12 12:05:17;;;;;;;4.10;3.70;;;27.80;99.90;;;;;;5110056;27;20184;-70
2021/08/12 12:07:47;;;;;;;4.82;4.30;;;27.30;99.90;;;;;;5110160;28;20507;-71
2021/08/12 12:10:27;;;;;;;5.88;3.90;;;27.10;99.90;;;;;;5103355;28;20242;-70
2021/08/12 12:13:08;;;;;;;4.47;4.07;;;26.90;99.90;;;;;;5102478;28;20346;-70
2021/08/12 12:15:39;;;;;;;4.50;4.07;;;26.60;99.90;;;;;;5111797;28;20223;-70
2021/08/12 12:18:07;;;;;;;5.17;4.03;;;26.40;99.90;;;;;;5111652;28;20179;-70
2021/08/12 12:20:39;;;;;;;4.80;4.30;;;26.40;99.90;;;;;;5103734;28;20377;-69
2021/08/12 12:23:08;;;;;;;4.13;3.83;;;26.40;99.90;;;;;;5103337;28;20207;-70
2021/08/12 12:25:39;;;;;;;4.47;4.07;;;26.40;99.90;;;;;;5109711;28;20183;-68
2021/08/12 12:28:12;;;;;;;4.50;4.20;;;26.50;99.90;;;;;;5109597;28;20183;-71
2021/08/12 12:30:40;;;;;;;4.53;4.17;;;26.30;99.90;;;;;;5106984;28;20225;-69
2021/08/12 12:33:09;;;;;;;4.00;3.63;;;26.10;99.90;;;;;;5094953;28;20311;-70
2021/08/12 12:35:39;;;;;;;4.37;4.07;;;26.00;99.90;;;;;;5104499;28;20187;-70
2021/08/12 12:38:09;;;;;;;4.23;4.03;;;26.00;99.90;;;;;;5091344;28;20175;-70
2021/08/12 12:40:39;;;;;;;4.07;3.77;;;25.90;99.90;;;;;;5106449;28;20185;-69
2021/08/12 12:43:09;;;;;;;3.80;3.60;;;25.80;99.90;;;;;;5102518;28;20225;-70
2021/08/12 12:45:46;;;;;;;5.27;4.07;;;25.90;99.90;;;;;;5109165;28;20431;-69
2021/08/12 12:48:14;;;;;;;4.33;4.03;;;26.00;99.90;;;;;;5111779;28;20394;-69
2021/08/12 12:50:45;;;;;;;5.13;4.20;;;26.30;99.90;;;;;;5107840;28;20179;-71
2021/08/12 12:53:14;;;;;;;5.70;4.60;;;26.40;99.90;;;;;;5109839;28;20464;-71
2021/08/12 12:55:45;;;;;;;6.43;4.60;;;26.60;99.90;;;;;;5108245;28;20171;-70
2021/08/12 12:58:21;;;;;;;5.60;4.50;;;26.70;99.90;;;;;;5102505;28;20182;-71
2021/08/12 13:01:00;;;;;;;4.80;4.20;;;26.90;99.90;;;;;;5105151;28;20211;-71